Time;durP1;ratioP1;P1;durP2;ratioP2;P2;SDS_P1;SDS_P2;PMS_P1;PMS_P2;Temp;Humidity;BMP_temperature;BMP_pressure;BME280_temperature;BME280_humidity;BME280_pressure;Samples;Min_cycle;Max_cycle;Signal;HPM_P1;HPM_P2
2022/06/23 00:02:22;;;;;;;11.32;4.68;;;17.60;99.90;;;;;;5064110;28;20029;-83
2022/06/23 00:05:04;;;;;;;9.35;3.15;;;17.60;99.90;;;;;;5067721;28;20384;-83
2022/06/23 00:07:35;;;;;;;6.95;3.63;;;17.60;99.90;;;;;;5061241;28;20471;-83
2022/06/23 00:10:23;;;;;;;10.00;5.15;;;17.60;99.90;;;;;;5053857;28;20021;-83
2022/06/23 00:12:57;;;;;;;9.88;5.38;;;17.60;99.90;;;;;;5081632;28;20468;-83
2022/06/23 00:15:35;;;;;;;8.65;4.57;;;17.50;99.90;;;;;;5062670;28;20059;-83
2022/06/23 00:18:05;;;;;;;10.50;5.28;;;17.50;99.90;;;;;;5064252;28;20041;-83
2022/06/23 00:20:48;;;;;;;10.82;4.70;;;17.50;99.90;;;;;;5065820;28;20040;-84
2022/06/23 00:23:24;;;;;;;;;;;17.50;99.90;;;;;;5062025;28;20028;-83
2022/06/23 00:26:30;;;;;;;9.98;4.60;;;17.40;99.90;;;;;;5050716;28;19920;-83
2022/06/23 00:29:29;;;;;;;9.05;4.25;;;17.50;99.90;;;;;;5048337;28;20479;-78
2022/06/23 00:32:05;;;;;;;4.82;3.03;;;17.50;99.90;;;;;;5042116;28;20055;-78
2022/06/23 00:34:36;;;;;;;7.13;3.70;;;17.40;99.90;;;;;;5061042;28;20033;-78
2022/06/23 00:37:18;;;;;;;5.03;3.05;;;17.40;99.90;;;;;;5046792;28;20032;-78
2022/06/23 00:39:55;;;;;;;5.47;3.55;;;17.40;99.90;;;;;;5054639;28;20381;-79
2022/06/23 00:42:29;;;;;;;8.13;3.40;;;17.30;99.90;;;;;;5060412;28;20040;-79
2022/06/23 00:45:11;;;;;;;8.52;3.80;;;17.30;99.90;;;;;;5059920;28;20377;-79
2022/06/23 00:48:22;;;;;;;8.98;3.50;;;17.30;99.90;;;;;;5035442;28;20036;-79
2022/06/23 00:51:01;;;;;;;12.43;5.70;;;17.20;99.90;;;;;;5063988;28;20036;-79
2022/06/23 00:54:15;;;;;;;5.05;3.55;;;17.20;99.90;;;;;;5042920;28;20040;-79
2022/06/23 00:57:13;;;;;;;9.07;5.10;;;17.20;99.90;;;;;;5043046;28;20476;-79
2022/06/23 01:00:06;;;;;;;8.63;5.00;;;17.20;99.90;;;;;;5054845;28;20016;-79
2022/06/23 01:02:59;;;;;;;9.05;4.78;;;17.10;99.90;;;;;;5046095;28;20024;-79
2022/06/23 01:05:38;;;;;;;8.48;4.60;;;17.20;99.90;;;;;;5062705;28;20049;-79
2022/06/23 01:08:31;;;;;;;9.68;4.20;;;17.20;99.90;;;;;;5061027;28;20029;-79
2022/06/23 01:11:23;;;;;;;8.85;4.03;;;17.10;99.90;;;;;;5054956;28;20371;-79
2022/06/23 01:13:55;;;;;;;;;;;17.10;99.90;;;;;;5056056;28;20036;-79
2022/06/23 01:16:29;;;;;;;8.35;5.22;;;17.10;99.90;;;;;;5058836;28;19923;-79
2022/06/23 01:19:32;;;;;;;7.47;4.55;;;17.10;99.90;;;;;;5060853;28;21146;-79
2022/06/23 01:22:02;;;;;;;6.45;4.00;;;17.10;99.90;;;;;;5030428;28;20048;-78
2022/06/23 01:24:54;;;;;;;10.13;5.45;;;17.10;99.90;;;;;;5028706;28;20805;-78
2022/06/23 01:27:45;;;;;;;14.57;5.25;;;17.10;99.90;;;;;;5065225;28;20041;-80
2022/06/23 01:30:13;;;;;;;9.93;3.90;;;17.00;99.90;;;;;;5055833;28;20482;-79
2022/06/23 01:32:51;;;;;;;10.90;4.95;;;17.00;99.90;;;;;;5044047;28;20044;-78
2022/06/23 01:35:29;;;;;;;10.25;5.32;;;17.00;99.90;;;;;;5064418;28;20040;-79
2022/06/23 01:38:03;;;;;;;8.43;4.60;;;17.00;99.90;;;;;;5034930;28;20033;-79
2022/06/23 01:40:33;;;;;;;9.30;4.85;;;17.00;99.90;;;;;;5060604;28;20033;-80
2022/06/23 01:43:19;;;;;;;8.43;4.38;;;17.00;99.90;;;;;;5058881;28;20031;-80
2022/06/23 01:45:55;;;;;;;11.23;4.95;;;17.00;99.90;;;;;;5059962;28;20486;-84
2022/06/23 01:48:52;;;;;;;7.45;4.38;;;17.00;99.90;;;;;;5061409;28;20043;-84
2022/06/23 01:51:38;;;;;;;9.10;5.10;;;16.90;99.90;;;;;;5060447;28;20041;-85
2022/06/23 01:54:53;;;;;;;9.18;5.10;;;16.90;99.90;;;;;;5033357;28;20052;-80
2022/06/23 01:57:48;;;;;;;10.27;4.55;;;16.90;99.90;;;;;;5034741;28;20040;-79
2022/06/23 02:00:27;;;;;;;8.60;5.03;;;16.90;99.90;;;;;;5043457;28;20021;-79
2022/06/23 02:03:33;;;;;;;8.02;4.85;;;16.80;99.90;;;;;;5065270;28;20467;-85
2022/06/23 02:06:20;;;;;;;7.43;4.47;;;16.80;99.90;;;;;;5026255;28;20045;-84
2022/06/23 02:09:02;;;;;;;7.57;4.60;;;16.70;99.90;;;;;;5020733;28;20072;-80
2022/06/23 02:11:48;;;;;;;9.57;4.70;;;16.70;99.90;;;;;;4991284;28;20033;-79
2022/06/23 02:14:46;;;;;;;8.48;4.30;;;16.70;99.90;;;;;;5005518;28;20447;-85
2022/06/23 02:17:24;;;;;;;9.52;4.13;;;16.70;99.90;;;;;;5025306;28;20039;-81
2022/06/23 02:20:03;;;;;;;8.30;4.80;;;16.60;99.90;;;;;;5004625;28;20044;-79
2022/06/23 02:22:45;;;;;;;6.57;4.22;;;16.60;99.90;;;;;;5021932;28;20492;-79
2022/06/23 02:25:30;;;;;;;7.32;4.03;;;16.60;99.90;;;;;;5040399;28;20392;-79
2022/06/23 02:28:26;;;;;;;10.73;5.75;;;16.60;99.90;;;;;;5041073;28;20033;-84
2022/06/23 02:31:12;;;;;;;7.20;4.68;;;16.60;99.90;;;;;;5012497;28;20041;-79
2022/06/23 02:34:14;;;;;;;9.73;4.82;;;16.60;99.90;;;;;;5024909;28;20048;-85
2022/06/23 02:37:23;;;;;;;8.90;4.63;;;16.60;99.90;;;;;;5023255;28;20057;-79
2022/06/23 02:39:53;;;;;;;6.32;3.50;;;16.60;99.90;;;;;;5038093;28;20485;-84
2022/06/23 02:42:37;;;;;;;6.93;3.97;;;16.60;99.90;;;;;;5005549;28;20048;-85
2022/06/23 02:45:50;;;;;;;7.40;4.38;;;16.60;99.90;;;;;;5036571;28;20512;-84
2022/06/23 02:48:52;;;;;;;9.82;5.20;;;16.60;99.90;;;;;;5023252;28;20385;-84
2022/06/23 02:51:44;;;;;;;7.20;4.60;;;16.60;99.90;;;;;;5009764;28;20037;-85
2022/06/23 02:54:41;;;;;;;10.45;4.70;;;16.60;99.90;;;;;;5028524;28;20064;-85
2022/06/23 02:57:38;;;;;;;8.48;4.35;;;16.60;99.90;;;;;;5023668;28;20469;-85
2022/06/23 03:00:14;;;;;;;9.98;5.30;;;16.60;99.90;;;;;;5020527;28;20037;-85
2022/06/23 03:02:59;;;;;;;9.05;4.25;;;16.60;99.90;;;;;;5039926;28;20385;-85
2022/06/23 03:05:55;;;;;;;5.78;3.60;;;16.60;99.90;;;;;;5022124;28;20080;-79
2022/06/23 03:08:41;;;;;;;10.18;4.68;;;16.60;99.90;;;;;;5023785;28;20045;-79
2022/06/23 03:11:52;;;;;;;8.88;4.85;;;16.60;99.90;;;;;;5010516;28;20042;-80
2022/06/23 03:15:01;;;;;;;5.68;3.97;;;16.60;99.90;;;;;;5007066;28;20058;-79
2022/06/23 03:17:40;;;;;;;6.93;3.65;;;16.60;99.90;;;;;;5024540;28;20030;-80
2022/06/23 03:20:21;;;;;;;5.40;3.55;;;16.60;99.90;;;;;;5008437;28;20046;-79
2022/06/23 03:23:11;;;;;;;9.52;4.40;;;16.60;99.90;;;;;;5013919;28;20034;-79
2022/06/23 03:25:43;;;;;;;5.88;3.97;;;16.60;99.90;;;;;;5013433;28;20485;-80
2022/06/23 03:28:18;;;;;;;8.75;3.97;;;16.60;99.90;;;;;;5038413;28;20030;-80
2022/06/23 03:31:02;;;;;;;7.45;3.63;;;16.50;99.90;;;;;;5042940;28;20048;-80
2022/06/23 03:33:40;;;;;;;7.47;4.43;;;16.50;99.90;;;;;;5023071;28;20048;-80
2022/06/23 03:36:27;;;;;;;7.28;4.28;;;16.50;99.90;;;;;;5058378;28;20052;-80
2022/06/23 03:42:23;;;;;;;5.68;3.65;;;16.50;99.90;;;;;;5048604;28;20029;-79
2022/06/23 03:44:59;;;;;;;5.40;3.75;;;16.50;99.90;;;;;;5065841;28;20041;-79
2022/06/23 03:47:35;;;;;;;7.70;4.07;;;16.50;99.90;;;;;;5066453;28;20020;-79
2022/06/23 03:50:16;;;;;;;8.55;4.20;;;16.50;99.90;;;;;;5066171;28;20033;-80
2022/06/23 03:52:56;;;;;;;8.32;3.90;;;16.50;99.90;;;;;;5078551;28;20424;-79
2022/06/23 03:55:48;;;;;;;6.53;4.35;;;16.50;99.90;;;;;;5060325;28;20041;-77
2022/06/23 03:58:30;;;;;;;6.20;3.33;;;16.50;99.90;;;;;;5056503;28;20045;-80
2022/06/23 04:01:14;;;;;;;8.65;4.32;;;16.60;99.90;;;;;;5061841;28;20502;-78
2022/06/23 04:04:03;;;;;;;6.93;3.33;;;16.60;99.90;;;;;;5047902;28;20024;-78
2022/06/23 04:06:41;;;;;;;5.60;2.47;;;16.60;99.90;;;;;;5059467;28;20033;-78
2022/06/23 04:09:20;;;;;;;6.93;3.92;;;16.70;99.90;;;;;;5066939;28;20021;-79
2022/06/23 04:12:20;;;;;;;7.40;4.53;;;16.70;99.90;;;;;;5060297;28;20048;-82
2022/06/23 04:14:59;;;;;;;7.88;4.10;;;16.80;99.90;;;;;;5079136;28;20393;-79
2022/06/23 04:17:40;;;;;;;9.02;4.85;;;16.80;99.90;;;;;;5060117;28;20005;-80
2022/06/23 04:20:29;;;;;;;8.75;4.32;;;16.90;99.90;;;;;;5030935;28;20029;-79
2022/06/23 04:23:02;;;;;;;6.60;3.45;;;17.00;99.90;;;;;;5058861;28;20028;-79
2022/06/23 04:25:41;;;;;;;5.72;3.50;;;17.00;99.90;;;;;;5064685;28;20043;-79
2022/06/23 04:28:21;;;;;;;8.18;4.53;;;17.10;99.90;;;;;;5060538;28;20035;-79
2022/06/23 04:30:56;;;;;;;9.77;4.68;;;17.20;99.90;;;;;;5063913;28;20123;-77
2022/06/23 04:33:29;;;;;;;6.00;3.85;;;17.20;99.90;;;;;;5061379;28;20396;-79
2022/06/23 04:36:12;;;;;;;;;;;;;;;;;;;;;
2022/06/23 04:38:50;;;;;;;7.57;4.22;;;17.30;99.90;;;;;;5008358;28;20044;-78
2022/06/23 04:41:24;;;;;;;7.85;4.13;;;17.40;99.90;;;;;;5033510;28;20026;-79
2022/06/23 04:44:17;;;;;;;8.13;4.18;;;17.50;99.90;;;;;;5007294;28;20022;-79
2022/06/23 04:46:51;;;;;;;5.70;3.08;;;17.60;99.90;;;;;;5018929;28;20038;-79
2022/06/23 04:49:35;;;;;;;5.38;3.83;;;17.70;99.90;;;;;;5019028;28;20045;-78
2022/06/23 04:52:53;;;;;;;6.60;3.92;;;17.80;99.90;;;;;;5019195;28;20045;-82
2022/06/23 04:55:31;;;;;;;4.65;3.20;;;17.90;99.90;;;;;;5031807;28;20405;-81
2022/06/23 04:58:07;;;;;;;4.32;2.42;;;18.00;99.90;;;;;;5022477;28;20033;-81
2022/06/23 05:00:46;;;;;;;6.22;3.65;;;18.20;99.90;;;;;;5030460;28;20435;-82
2022/06/23 05:03:39;;;;;;;6.85;3.70;;;18.30;99.90;;;;;;5029327;28;20025;-82
2022/06/23 05:06:09;;;;;;;9.43;6.25;;;18.40;99.90;;;;;;5039814;28;20064;-81
2022/06/23 05:08:40;;;;;;;8.82;5.90;;;18.50;99.90;;;;;;5052272;28;20033;-82
2022/06/23 05:11:29;;;;;;;14.10;7.60;;;18.50;99.90;;;;;;5059207;28;20064;-81
2022/06/23 05:14:05;;;;;;;9.70;4.53;;;18.60;99.90;;;;;;5074334;28;20020;-81
2022/06/23 05:16:41;;;;;;;8.05;3.78;;;18.70;99.90;;;;;;5065310;28;20037;-81
2022/06/23 05:19:17;;;;;;;4.28;3.30;;;18.80;99.90;;;;;;5060806;28;20024;-81
2022/06/23 05:21:52;;;;;;;6.25;2.55;;;18.90;99.90;;;;;;5063496;28;20029;-83
2022/06/23 05:24:39;;;;;;;4.10;2.28;;;19.00;99.90;;;;;;5049608;28;20024;-82
2022/06/23 05:27:19;;;;;;;3.25;2.50;;;19.20;99.90;;;;;;5078112;28;20032;-82
2022/06/23 05:30:24;;;;;;;4.28;2.33;;;19.30;99.90;;;;;;5043245;28;20028;-82
2022/06/23 05:32:58;;;;;;;4.93;3.30;;;19.50;99.90;;;;;;5049335;28;20033;-81
2022/06/23 05:35:34;;;;;;;7.43;4.50;;;19.60;99.90;;;;;;5062766;28;20049;-82
2022/06/23 05:38:39;;;;;;;52.53;37.55;;;19.70;99.90;;;;;;5061468;28;20024;-77
2022/06/23 05:41:17;;;;;;;15.27;10.52;;;19.80;99.90;;;;;;5009758;28;21392;-81
2022/06/23 05:43:46;;;;;;;5.47;4.43;;;19.90;99.90;;;;;;5064207;28;20345;-83
2022/06/23 05:46:26;;;;;;;5.95;3.03;;;20.00;99.90;;;;;;5044145;28;20032;-84
2022/06/23 05:49:00;;;;;;;5.43;3.10;;;20.10;99.90;;;;;;5064330;28;20040;-82
2022/06/23 05:51:52;;;;;;;5.07;2.90;;;20.20;99.90;;;;;;5047252;28;20364;-82
2022/06/23 05:54:43;;;;;;;6.22;3.45;;;20.30;99.80;;;;;;5045213;28;20041;-83
2022/06/23 05:57:43;;;;;;;6.43;3.55;;;20.50;99.50;;;;;;5059643;28;20078;-83
2022/06/23 06:00:42;;;;;;;9.13;4.10;;;20.60;99.00;;;;;;5043895;28;20032;-79
2022/06/23 06:03:33;;;;;;;5.78;3.63;;;20.90;98.50;;;;;;5060941;28;20071;-82
2022/06/23 06:06:02;;;;;;;3.33;2.10;;;21.20;98.00;;;;;;5044884;28;20036;-80
2022/06/23 06:08:33;;;;;;;7.03;2.53;;;21.50;97.60;;;;;;5040996;28;20457;-79
2022/06/23 06:11:04;;;;;;;3.60;2.30;;;21.80;97.10;;;;;;5057868;28;20460;-80
2022/06/23 06:13:39;;;;;;;5.93;2.45;;;21.90;96.70;;;;;;5070656;28;20048;-79
2022/06/23 06:16:07;;;;;;;7.95;3.25;;;22.00;96.40;;;;;;5071096;28;20047;-80
2022/06/23 06:18:37;;;;;;;5.72;3.20;;;22.10;96.20;;;;;;5040743;28;20035;-79
2022/06/23 06:21:07;;;;;;;4.72;2.60;;;22.10;96.00;;;;;;5072652;28;20024;-79
2022/06/23 06:23:55;;;;;;;3.47;2.20;;;22.30;95.90;;;;;;5065293;28;20021;-80
2022/06/23 06:26:29;;;;;;;6.60;2.53;;;22.50;96.10;;;;;;5053194;28;20383;-80
2022/06/23 06:29:26;;;;;;;4.03;2.22;;;22.90;95.40;;;;;;5049255;28;20036;-80
2022/06/23 06:32:17;;;;;;;6.53;2.38;;;23.20;94.70;;;;;;5051701;28;20025;-80
2022/06/23 06:35:08;;;;;;;3.95;2.30;;;23.40;94.20;;;;;;5049473;28;20515;-80
2022/06/23 06:37:42;;;;;;;4.78;2.40;;;23.50;93.80;;;;;;5051980;28;20040;-80
2022/06/23 06:40:09;;;;;;;4.25;2.47;;;23.50;93.50;;;;;;5071209;28;20452;-79
2022/06/23 06:42:50;;;;;;;6.88;2.65;;;23.50;93.30;;;;;;5053432;28;20028;-79
2022/06/23 06:45:29;;;;;;;5.55;3.20;;;23.30;93.30;;;;;;5045617;28;20464;-80
2022/06/23 06:47:56;;;;;;;3.25;2.17;;;23.30;93.20;;;;;;5063737;28;20538;-80
2022/06/23 06:50:44;;;;;;;4.22;2.63;;;23.30;93.30;;;;;;5070834;28;20040;-84
2022/06/23 06:53:28;;;;;;;4.78;3.22;;;23.40;93.30;;;;;;5065619;28;20472;-82
2022/06/23 06:56:24;;;;;;;4.15;2.08;;;23.40;92.90;;;;;;5057939;28;20029;-82
2022/06/23 06:59:22;;;;;;;4.57;2.88;;;23.50;93.00;;;;;;5055968;28;20051;-84
2022/06/23 07:02:03;;;;;;;6.50;1.65;;;23.60;92.90;;;;;;5064953;28;20051;-84
2022/06/23 07:04:42;;;;;;;4.05;1.85;;;23.70;92.70;;;;;;5064876;28;20151;-83
2022/06/23 07:07:18;;;;;;;3.58;2.15;;;23.90;92.60;;;;;;5051470;28;20371;-80
2022/06/23 07:09:55;;;;;;;3.70;2.47;;;24.00;92.30;;;;;;5056154;28;20044;-80
2022/06/23 07:12:51;;;;;;;3.22;2.17;;;24.10;92.20;;;;;;5049342;28;20036;-80
2022/06/23 07:15:26;;;;;;;3.30;1.70;;;24.20;91.90;;;;;;5057357;28;20029;-80
2022/06/23 07:18:02;;;;;;;5.10;2.65;;;24.40;91.90;;;;;;5062138;28;20468;-80
2022/06/23 07:21:10;;;;;;;5.47;2.30;;;24.50;91.60;;;;;;5056362;28;20048;-80
2022/06/23 07:23:51;;;;;;;3.58;2.20;;;24.60;91.40;;;;;;5058263;28;20048;-80
2022/06/23 07:26:42;;;;;;;4.65;1.80;;;24.70;91.00;;;;;;5064130;28;20040;-79
2022/06/23 07:29:17;;;;;;;3.40;2.58;;;24.70;90.90;;;;;;5060153;28;20012;-79
2022/06/23 07:32:11;;;;;;;4.28;2.72;;;24.80;90.70;;;;;;5032181;28;20047;-79
2022/06/23 07:34:44;;;;;;;3.53;2.25;;;24.80;90.50;;;;;;5051776;28;20475;-80
2022/06/23 07:37:21;;;;;;;3.50;1.95;;;24.90;90.40;;;;;;5061314;28;20028;-80
2022/06/23 07:39:56;;;;;;;5.10;1.50;;;25.00;90.40;;;;;;5055211;28;20213;-77
2022/06/23 07:42:36;;;;;;;3.50;2.13;;;25.10;90.20;;;;;;5042777;28;20048;-78
2022/06/23 07:45:28;;;;;;;4.22;2.40;;;25.30;90.10;;;;;;5037069;28;20030;-77
2022/06/23 07:47:55;;;;;;;5.10;2.58;;;25.50;89.90;;;;;;5045827;28;20033;-78
2022/06/23 07:50:22;;;;;;;3.65;1.90;;;25.60;88.90;;;;;;5055587;28;20376;-78
2022/06/23 07:52:49;;;;;;;4.88;1.95;;;25.70;89.20;;;;;;5057182;28;20483;-78
2022/06/23 07:55:42;;;;;;;4.88;1.90;;;25.80;88.20;;;;;;5059497;28;20044;-77
2022/06/23 07:58:10;;;;;;;6.07;2.35;;;25.90;88.00;;;;;;5071187;28;20479;-77
2022/06/23 08:00:40;;;;;;;3.15;2.25;;;26.10;87.50;;;;;;5043761;28;20352;-77
2022/06/23 08:03:27;;;;;;;3.92;2.22;;;26.10;87.20;;;;;;5055103;28;20024;-78
2022/06/23 08:06:06;;;;;;;5.25;1.98;;;26.30;87.00;;;;;;5055992;28;20037;-77
2022/06/23 08:08:35;;;;;;;5.05;3.03;;;26.40;86.30;;;;;;5072930;28;20027;-77
2022/06/23 08:13:59;;;;;;;5.88;3.00;;;26.60;85.00;;;;;;5053741;28;20033;-77
2022/06/23 08:19:43;;;;;;;6.45;2.38;;;26.70;84.70;;;;;;5052488;28;21822;-77
2022/06/23 08:22:17;;;;;;;8.95;3.47;;;26.80;84.70;;;;;;5056911;28;20040;-77
2022/06/23 08:24:48;;;;;;;6.20;2.50;;;26.80;83.50;;;;;;5052470;28;20037;-78
2022/06/23 08:27:28;;;;;;;5.15;2.00;;;26.90;83.80;;;;;;5036555;28;20079;-78
2022/06/23 08:30:09;;;;;;;3.03;1.90;;;27.00;84.00;;;;;;5056141;28;20021;-77
2022/06/23 08:32:38;;;;;;;7.07;4.07;;;27.20;83.90;;;;;;5054394;28;20388;-76
2022/06/23 08:35:27;;;;;;;4.00;2.20;;;27.50;83.20;;;;;;5070677;28;20484;-77
2022/06/23 08:38:12;;;;;;;5.80;2.42;;;27.60;82.40;;;;;;5047773;28;20045;-77
2022/06/23 08:41:20;;;;;;;3.38;1.70;;;27.70;82.10;;;;;;5049408;28;20040;-79
2022/06/23 08:43:55;;;;;;;6.90;3.08;;;27.80;82.40;;;;;;5065584;28;20021;-76
2022/06/23 08:46:31;;;;;;;;;;;28.10;81.70;;;;;;5054289;28;20036;-77
2022/06/23 08:49:00;;;;;;;5.43;2.90;;;28.20;80.70;;;;;;5072269;28;20568;-77
2022/06/23 08:52:16;;;;;;;5.20;3.15;;;28.20;80.50;;;;;;5054050;28;20702;-77
2022/06/23 08:55:18;;;;;;;8.35;4.43;;;28.40;80.30;;;;;;5044208;28;20045;-78
2022/06/23 08:57:57;;;;;;;9.07;5.00;;;28.50;80.10;;;;;;5054188;28;20045;-78
2022/06/23 09:00:36;;;;;;;13.25;7.00;;;28.70;80.10;;;;;;5065259;28;20024;-78
2022/06/23 09:03:10;;;;;;;16.42;8.15;;;29.00;80.00;;;;;;5054710;28;20502;-78
2022/06/23 09:05:47;;;;;;;12.38;6.72;;;29.20;79.50;;;;;;5055594;28;20025;-77
2022/06/23 09:08:37;;;;;;;19.08;8.73;;;29.30;78.90;;;;;;5073133;28;20110;-80
2022/06/23 09:11:18;;;;;;;14.18;6.70;;;29.50;78.40;;;;;;5060082;28;20025;-79
2022/06/23 09:14:00;;;;;;;12.57;5.10;;;29.60;77.80;;;;;;5051502;28;20043;-82
2022/06/23 09:16:34;;;;;;;14.60;7.07;;;29.60;77.30;;;;;;5040626;28;20291;-79
2022/06/23 09:19:39;;;;;;;13.68;7.40;;;29.80;77.40;;;;;;5051554;28;20479;-79
2022/06/23 09:22:15;;;;;;;17.38;9.00;;;30.00;77.20;;;;;;5052411;28;20036;-79
2022/06/23 09:25:06;;;;;;;13.15;6.07;;;30.30;76.80;;;;;;5056103;28;20043;-80
2022/06/23 09:28:01;;;;;;;11.20;4.57;;;30.40;75.70;;;;;;5058252;28;20027;-80
2022/06/23 09:31:06;;;;;;;10.38;4.22;;;30.40;75.60;;;;;;5058272;28;20016;-80
2022/06/23 09:34:06;;;;;;;7.93;3.95;;;30.60;75.40;;;;;;5044276;28;20037;-79
2022/06/23 09:37:01;;;;;;;5.65;2.53;;;30.80;74.70;;;;;;5070953;28;20044;-79
2022/06/23 09:39:59;;;;;;;5.10;2.33;;;30.90;74.50;;;;;;5056507;28;20025;-79
2022/06/23 09:42:58;;;;;;;5.97;1.58;;;31.10;73.60;;;;;;5057188;28;20482;-79
2022/06/23 09:45:29;;;;;;;3.35;1.58;;;31.10;72.60;;;;;;5053529;28;20025;-79
2022/06/23 09:48:27;;;;;;;3.05;1.38;;;31.20;71.80;;;;;;5052315;28;20045;-79
2022/06/23 09:51:22;;;;;;;4.35;1.38;;;31.30;71.60;;;;;;5053180;28;20025;-83
2022/06/23 09:54:19;;;;;;;5.53;1.27;;;31.40;71.20;;;;;;5052023;28;20460;-80
2022/06/23 09:57:26;;;;;;;5.38;1.75;;;31.40;70.60;;;;;;5055525;28;20040;-79
2022/06/23 10:00:19;;;;;;;3.72;1.67;;;31.60;70.50;;;;;;5053511;28;20078;-80
2022/06/23 10:03:32;;;;;;;7.22;2.20;;;31.60;69.20;;;;;;5052831;28;20025;-83
2022/06/23 10:06:15;;;;;;;4.20;1.58;;;31.70;69.20;;;;;;5047403;28;20856;-82
2022/06/23 10:09:21;;;;;;;6.57;1.67;;;31.80;69.30;;;;;;5053639;28;20033;-83
2022/06/23 10:12:22;;;;;;;4.80;1.38;;;32.10;69.30;;;;;;5055268;28;20033;-81
2022/06/23 10:15:11;;;;;;;3.78;1.13;;;32.30;68.60;;;;;;5040336;28;20047;-82
2022/06/23 10:18:15;;;;;;;6.10;1.67;;;32.40;68.00;;;;;;5049434;28;20036;-78
2022/06/23 10:21:12;;;;;;;8.65;3.22;;;32.60;67.80;;;;;;5059576;28;20032;-80
2022/06/23 10:24:04;;;;;;;6.43;1.70;;;32.70;67.20;;;;;;5050758;28;20021;-79
2022/06/23 10:26:53;;;;;;;6.15;2.60;;;32.80;66.60;;;;;;5053131;28;20045;-79
2022/06/23 10:29:37;;;;;;;4.60;2.00;;;32.90;66.40;;;;;;5049722;28;20103;-78
2022/06/23 10:32:35;;;;;;;4.00;1.80;;;32.90;66.20;;;;;;5050804;28;20027;-79
2022/06/23 10:35:37;;;;;;;3.97;1.88;;;33.00;65.90;;;;;;5036306;28;20286;-79
2022/06/23 10:38:21;;;;;;;6.03;1.95;;;33.10;65.60;;;;;;5053985;28;20032;-80
2022/06/23 10:41:08;;;;;;;6.07;1.75;;;33.20;65.80;;;;;;5053632;28;20028;-79
2022/06/23 10:43:45;;;;;;;3.63;1.80;;;33.40;65.10;;;;;;5054815;28;20023;-79
2022/06/23 10:46:24;;;;;;;9.82;3.08;;;33.50;65.00;;;;;;5052846;28;20020;-80
2022/06/23 10:49:09;;;;;;;5.55;2.88;;;33.80;64.80;;;;;;5065436;28;20028;-80
2022/06/23 10:52:14;;;;;;;4.95;1.50;;;34.10;64.20;;;;;;5037528;28;20036;-80
2022/06/23 10:54:49;;;;;;;2.97;1.33;;;34.10;63.80;;;;;;5055533;28;20020;-81
2022/06/23 10:57:49;;;;;;;5.95;1.90;;;34.40;63.80;;;;;;5054914;28;20052;-83
2022/06/23 11:00:18;;;;;;;7.07;1.25;;;34.70;62.90;;;;;;5049815;28;20025;-83
2022/06/23 11:02:57;;;;;;;3.67;0.90;;;34.90;62.50;;;;;;5041331;28;20033;-84
2022/06/23 11:05:29;;;;;;;3.28;0.90;;;35.30;62.00;;;;;;5056381;28;20021;-83
2022/06/23 11:08:12;;;;;;;2.45;1.02;;;35.70;60.80;;;;;;5054004;28;20033;-84
2022/06/23 11:11:06;;;;;;;3.50;1.15;;;36.00;59.30;;;;;;5037504;28;20045;-84
2022/06/23 11:14:11;;;;;;;3.13;0.80;;;36.20;58.40;;;;;;5054529;28;20032;-83
2022/06/23 11:16:47;;;;;;;4.38;0.88;;;36.30;58.30;;;;;;5043901;28;20041;-83
2022/06/23 11:19:48;;;;;;;4.78;1.00;;;36.70;57.80;;;;;;5049437;28;20040;-82
2022/06/23 11:22:35;;;;;;;4.43;1.38;;;37.00;56.20;;;;;;5030281;28;20041;-82
2022/06/23 11:25:13;;;;;;;2.33;1.23;;;37.50;56.00;;;;;;5042737;28;20055;-85
2022/06/23 11:27:56;;;;;;;7.25;3.30;;;37.30;54.70;;;;;;5041195;28;20024;-84
2022/06/23 11:30:48;;;;;;;5.35;2.10;;;37.20;54.40;;;;;;5050944;28;20025;-85
2022/06/23 11:33:39;;;;;;;3.92;1.63;;;37.30;53.90;;;;;;5042804;28;20029;-86
2022/06/23 11:36:11;;;;;;;7.45;1.38;;;37.40;53.90;;;;;;5053811;28;20044;-85
2022/06/23 11:39:16;;;;;;;3.53;1.55;;;37.80;53.80;;;;;;5074189;28;20037;-83
2022/06/23 11:42:14;;;;;;;5.18;1.10;;;38.00;52.80;;;;;;5031384;28;20444;-83
2022/06/23 11:45:05;;;;;;;4.40;1.10;;;38.20;52.60;;;;;;5057242;28;20029;-83
2022/06/23 11:47:44;;;;;;;3.88;1.10;;;38.20;51.80;;;;;;5062932;28;20045;-83
2022/06/23 11:50:35;;;;;;;6.15;1.20;;;38.30;51.80;;;;;;5059632;28;20479;-84
2022/06/23 11:53:37;;;;;;;4.90;1.30;;;38.70;50.80;;;;;;5045830;28;20986;-84
2022/06/23 11:56:43;;;;;;;4.03;1.10;;;39.00;50.30;;;;;;5011523;28;20409;-83
2022/06/23 11:59:33;;;;;;;8.02;1.58;;;39.20;50.00;;;;;;5050560;28;20491;-82
2022/06/23 12:02:05;;;;;;;4.55;1.10;;;39.40;49.70;;;;;;5075969;28;20017;-84
2022/06/23 12:04:46;;;;;;;6.07;1.20;;;39.90;49.30;;;;;;5040061;28;20380;-83
2022/06/23 12:07:31;;;;;;;7.97;1.48;;;39.80;48.80;;;;;;5040721;28;20400;-82
2022/06/23 12:10:26;;;;;;;3.63;2.13;;;39.90;48.70;;;;;;5067891;28;20054;-81
2022/06/23 12:13:03;;;;;;;4.10;1.98;;;40.30;47.70;;;;;;5028336;28;20036;-81
2022/06/23 12:15:40;;;;;;;3.85;1.73;;;40.60;46.90;;;;;;4995797;28;20040;-81
2022/06/23 12:18:17;;;;;;;3.45;1.30;;;40.80;47.00;;;;;;4999725;28;20065;-82
2022/06/23 12:21:09;;;;;;;5.70;1.40;;;41.10;46.90;;;;;;4967693;28;20033;-81
2022/06/23 12:24:02;;;;;;;7.07;1.88;;;41.50;45.90;;;;;;4995908;28;20042;-81
2022/06/23 12:27:05;;;;;;;7.18;1.92;;;41.70;45.50;;;;;;5001555;28;20045;-80
2022/06/23 12:30:14;;;;;;;6.28;1.50;;;42.00;45.10;;;;;;4943919;28;20386;-80
2022/06/23 12:32:51;;;;;;;3.58;1.45;;;42.40;44.70;;;;;;4943384;28;20038;-81
2022/06/23 12:35:43;;;;;;;4.38;1.40;;;42.70;43.80;;;;;;4997490;28;20050;-83
2022/06/23 12:38:21;;;;;;;4.05;1.35;;;42.80;43.40;;;;;;5000501;28;20022;-84
2022/06/23 12:41:22;;;;;;;6.07;1.67;;;43.00;43.00;;;;;;5000517;28;20034;-82
2022/06/23 12:44:19;;;;;;;3.65;1.20;;;42.90;42.30;;;;;;4982926;28;20398;-83
2022/06/23 12:47:10;;;;;;;10.75;6.85;;;42.60;42.70;;;;;;5025923;28;20051;-83
2022/06/23 12:50:08;;;;;;;5.10;2.80;;;42.70;43.00;;;;;;5044998;28;20387;-83
2022/06/23 12:53:24;;;;;;;7.20;2.03;;;43.00;42.60;;;;;;5047924;28;20456;-83
2022/06/23 12:56:16;;;;;;;7.57;1.42;;;43.20;42.00;;;;;;5053132;28;20045;-84
2022/06/23 12:58:51;;;;;;;4.72;1.50;;;43.60;42.00;;;;;;5033213;28;20033;-84
2022/06/23 13:01:29;;;;;;;6.30;1.48;;;43.90;41.60;;;;;;5069276;28;20060;-84
2022/06/23 13:04:01;;;;;;;6.03;1.30;;;43.80;41.50;;;;;;5052188;28;20020;-84
2022/06/23 13:06:44;;;;;;;4.88;1.33;;;43.90;40.90;;;;;;5046135;28;20511;-81
2022/06/23 13:09:31;;;;;;;7.47;1.42;;;43.50;40.70;;;;;;5035700;28;20796;-82
2022/06/23 13:12:04;;;;;;;5.28;1.83;;;41.80;41.70;;;;;;5043823;28;20029;-83
2022/06/23 13:15:14;;;;;;;8.15;1.63;;;40.80;42.80;;;;;;5045856;28;20477;-83
2022/06/23 13:18:01;;;;;;;4.15;1.50;;;39.70;43.90;;;;;;5011089;28;20052;-84
2022/06/23 13:20:34;;;;;;;5.30;1.60;;;38.70;45.70;;;;;;5025877;28;20056;-83
2022/06/23 13:23:09;;;;;;;6.10;1.73;;;39.50;45.00;;;;;;5050885;28;20045;-83
2022/06/23 13:25:43;;;;;;;7.95;2.08;;;40.60;43.80;;;;;;5051965;28;20489;-83
2022/06/23 13:28:24;;;;;;;7.05;1.85;;;41.80;42.90;;;;;;5068870;28;20029;-84
2022/06/23 13:30:52;;;;;;;;;;;42.60;41.90;;;;;;5047765;28;20021;-83
2022/06/23 13:33:33;;;;;;;6.75;1.63;;;42.90;41.50;;;;;;5062274;28;19935;-85
2022/06/23 13:36:15;;;;;;;6.57;1.45;;;42.40;41.50;;;;;;5033904;28;20460;-85
2022/06/23 13:38:49;;;;;;;5.75;1.77;;;41.50;42.70;;;;;;5049648;28;20023;-84
2022/06/23 13:41:32;;;;;;;4.65;1.40;;;41.60;42.70;;;;;;5061409;28;20494;-83
2022/06/23 13:44:07;;;;;;;5.10;1.50;;;42.20;41.90;;;;;;5034316;28;20685;-83
2022/06/23 13:46:58;;;;;;;9.07;2.00;;;42.40;41.60;;;;;;5033677;28;20075;-84
2022/06/23 13:49:31;;;;;;;4.45;1.17;;;43.20;41.10;;;;;;5044127;28;20036;-84
2022/06/23 13:52:11;;;;;;;4.40;1.33;;;43.40;40.60;;;;;;5045865;28;20020;-84
2022/06/23 13:55:00;;;;;;;7.35;1.30;;;42.20;41.40;;;;;;5050661;28;20033;-79
2022/06/23 13:57:54;;;;;;;11.48;7.03;;;41.80;42.50;;;;;;5042986;28;20467;-79
2022/06/23 14:00:26;;;;;;;8.32;4.35;;;42.70;41.40;;;;;;5044821;28;20037;-79
2022/06/23 14:03:07;;;;;;;5.38;2.67;;;43.30;40.60;;;;;;5044477;28;20028;-85
2022/06/23 14:05:38;;;;;;;4.00;1.48;;;43.20;40.40;;;;;;5051100;28;20021;-84
2022/06/23 14:08:31;;;;;;;6.82;1.50;;;43.00;40.50;;;;;;5049159;28;20036;-85
2022/06/23 14:11:10;;;;;;;5.07;1.27;;;42.00;41.30;;;;;;5050555;28;20031;-82
2022/06/23 14:14:11;;;;;;;6.80;1.10;;;41.60;42.20;;;;;;5057838;28;20041;-83
2022/06/23 14:16:40;;;;;;;;;;;42.50;41.10;;;;;;5043487;28;20041;-83
2022/06/23 14:19:17;;;;;;;8.18;1.42;;;43.50;40.70;;;;;;5046236;28;19908;-82
2022/06/23 14:21:51;;;;;;;;;;;44.30;40.00;;;;;;5058865;28;20044;-82
2022/06/23 14:24:25;;;;;;;6.70;1.80;;;44.90;39.50;;;;;;5047665;28;19975;-82
2022/06/23 14:27:12;;;;;;;7.45;2.00;;;45.40;38.10;;;;;;5051318;28;20040;-81
2022/06/23 14:30:06;;;;;;;7.18;1.63;;;45.80;38.00;;;;;;5041995;28;20410;-81